sensor_id;sensor_type;location;lat;lon;timestamp;pressure;altitude;pressure_sealevel;temperature
6454;BMP180;3260;52.438;13.502;2022-09-09T04:00:55;100381.00;;;14.90
6454;BMP180;3260;52.438;13.502;2022-09-09T04:03:25;100400.00;;;15.30
6454;BMP180;3260;52.438;13.502;2022-09-09T04:05:56;100407.00;;;14.90
6454;BMP180;3260;52.438;13.502;2022-09-09T04:08:25;100411.00;;;14.80
6454;BMP180;3260;52.438;13.502;2022-09-09T04:10:54;100407.00;;;14.70
6454;BMP180;3260;52.438;13.502;2022-09-09T04:13:25;100404.00;;;14.80
6454;BMP180;3260;52.438;13.502;2022-09-09T04:15:56;100404.00;;;15.10
6454;BMP180;3260;52.438;13.502;2022-09-09T04:18:26;100410.00;;;15.20
6454;BMP180;3260;52.438;13.502;2022-09-09T04:20:56;100397.00;;;14.90
6454;BMP180;3260;52.438;13.502;2022-09-09T04:23:26;100408.00;;;14.60
6454;BMP180;3260;52.438;13.502;2022-09-09T04:25:57;100417.00;;;14.70
6454;BMP180;3260;52.438;13.502;2022-09-09T04:28:28;100419.00;;;14.30
6454;BMP180;3260;52.438;13.502;2022-09-09T04:31:05;100424.00;;;14.60
6454;BMP180;3260;52.438;13.502;2022-09-09T04:33:33;100418.00;;;14.80
6454;BMP180;3260;52.438;13.502;2022-09-09T04:36:06;100417.00;;;14.80
6454;BMP180;3260;52.438;13.502;2022-09-09T04:38:34;100430.00;;;14.80
6454;BMP180;3260;52.438;13.502;2022-09-09T04:41:03;100433.00;;;14.60
6454;BMP180;3260;52.438;13.502;2022-09-09T04:43:31;100433.00;;;14.50
6454;BMP180;3260;52.438;13.502;2022-09-09T04:46:01;100426.00;;;14.30
6454;BMP180;3260;52.438;13.502;2022-09-09T04:48:29;100428.00;;;14.60
6454;BMP180;3260;52.438;13.502;2022-09-09T04:51:00;100433.00;;;14.60
6454;BMP180;3260;52.438;13.502;2022-09-09T04:53:29;100429.00;;;14.60
6454;BMP180;3260;52.438;13.502;2022-09-09T04:56:02;100432.00;;;14.80
6454;BMP180;3260;52.438;13.502;2022-09-09T04:58:31;100435.00;;;15.20
6454;BMP180;3260;52.438;13.502;2022-09-09T05:01:09;100444.00;;;15.20
6454;BMP180;3260;52.438;13.502;2022-09-09T05:03:38;100417.00;;;15.50
6454;BMP180;3260;52.438;13.502;2022-09-09T05:06:08;100440.00;;;15.40
6454;BMP180;3260;52.438;13.502;2022-09-09T05:08:38;100445.00;;;15.60
6454;BMP180;3260;52.438;13.502;2022-09-09T05:11:15;100449.00;;;15.60
6454;BMP180;3260;52.438;13.502;2022-09-09T05:13:44;100445.00;;;15.70
6454;BMP180;3260;52.438;13.502;2022-09-09T05:16:14;100448.00;;;15.30
6454;BMP180;3260;52.438;13.502;2022-09-09T05:18:43;100446.00;;;15.90
6454;BMP180;3260;52.438;13.502;2022-09-09T05:21:15;100443.00;;;16.10
6454;BMP180;3260;52.438;13.502;2022-09-09T05:23:45;100445.00;;;16.10
6454;BMP180;3260;52.438;13.502;2022-09-09T05:26:16;100452.00;;;16.30
6454;BMP180;3260;52.438;13.502;2022-09-09T05:28:45;100453.00;;;16.20
6454;BMP180;3260;52.438;13.502;2022-09-09T05:31:17;100451.00;;;15.90
6454;BMP180;3260;52.438;13.502;2022-09-09T05:33:47;100449.00;;;16.20
6454;BMP180;3260;52.438;13.502;2022-09-09T05:36:18;100451.00;;;16.20
6454;BMP180;3260;52.438;13.502;2022-09-09T05:38:47;100443.00;;;15.80
6454;BMP180;3260;52.438;13.502;2022-09-09T05:41:16;100446.00;;;16.10
6454;BMP180;3260;52.438;13.502;2022-09-09T05:43:46;100448.00;;;16.20
6454;BMP180;3260;52.438;13.502;2022-09-09T05:46:19;100443.00;;;15.90
6454;BMP180;3260;52.438;13.502;2022-09-09T05:48:49;100447.00;;;15.80
6454;BMP180;3260;52.438;13.502;2022-09-09T05:51:20;100445.00;;;15.60
6454;BMP180;3260;52.438;13.502;2022-09-09T05:53:49;100458.00;;;15.80
6454;BMP180;3260;52.438;13.502;2022-09-09T05:56:19;100451.00;;;16.20
6454;BMP180;3260;52.438;13.502;2022-09-09T05:58:49;100447.00;;;15.90
6454;BMP180;3260;52.438;13.502;2022-09-09T06:01:22;100457.00;;;16.40
6454;BMP180;3260;52.438;13.502;2022-09-09T06:03:52;100461.00;;;16.20
6454;BMP180;3260;52.438;13.502;2022-09-09T06:06:23;100471.00;;;16.10
6454;BMP180;3260;52.438;13.502;2022-09-09T06:08:55;100476.00;;;16.10
6454;BMP180;3260;52.438;13.502;2022-09-09T06:11:26;100471.00;;;16.40
6454;BMP180;3260;52.438;13.502;2022-09-09T06:13:57;100472.00;;;16.30
6454;BMP180;3260;52.438;13.502;2022-09-09T06:16:29;100472.00;;;16.40
6454;BMP180;3260;52.438;13.502;2022-09-09T06:19:01;100465.00;;;16.30
6454;BMP180;3260;52.438;13.502;2022-09-09T06:21:32;100469.00;;;16.90
6454;BMP180;3260;52.438;13.502;2022-09-09T06:24:01;100462.00;;;16.50
6454;BMP180;3260;52.438;13.502;2022-09-09T06:26:32;100461.00;;;17.00
6454;BMP180;3260;52.438;13.502;2022-09-09T06:29:02;100465.00;;;17.20
6454;BMP180;3260;52.438;13.502;2022-09-09T06:31:34;100470.00;;;17.40
6454;BMP180;3260;52.438;13.502;2022-09-09T06:34:06;100474.00;;;17.80
6454;BMP180;3260;52.438;13.502;2022-09-09T06:36:37;100474.00;;;17.50
6454;BMP180;3260;52.438;13.502;2022-09-09T06:39:06;100480.00;;;17.70
6454;BMP180;3260;52.438;13.502;2022-09-09T06:41:41;100478.00;;;17.60
6454;BMP180;3260;52.438;13.502;2022-09-09T06:44:10;100482.00;;;17.70
6454;BMP180;3260;52.438;13.502;2022-09-09T06:46:40;100475.00;;;17.80
6454;BMP180;3260;52.438;13.502;2022-09-09T06:49:09;100476.00;;;18.40
6454;BMP180;3260;52.438;13.502;2022-09-09T06:51:38;100475.00;;;18.50
6454;BMP180;3260;52.438;13.502;2022-09-09T06:54:11;100480.00;;;18.30
6454;BMP180;3260;52.438;13.502;2022-09-09T06:56:41;100482.00;;;17.80
6454;BMP180;3260;52.438;13.502;2022-09-09T06:59:10;100475.00;;;18.00
6454;BMP180;3260;52.438;13.502;2022-09-09T07:01:42;100480.00;;;18.20
6454;BMP180;3260;52.438;13.502;2022-09-09T07:04:11;100481.00;;;18.40
6454;BMP180;3260;52.438;13.502;2022-09-09T07:06:43;100484.00;;;18.90
6454;BMP180;3260;52.438;13.502;2022-09-09T07:09:14;100470.00;;;18.60
6454;BMP180;3260;52.438;13.502;2022-09-09T07:11:46;100492.00;;;18.90
6454;BMP180;3260;52.438;13.502;2022-09-09T07:14:15;100491.00;;;19.30
6454;BMP180;3260;52.438;13.502;2022-09-09T07:16:46;100485.00;;;18.70
6454;BMP180;3260;52.438;13.502;2022-09-09T07:19:14;100493.00;;;19.30
6454;BMP180;3260;52.438;13.502;2022-09-09T07:21:43;100492.00;;;19.30
6454;BMP180;3260;52.438;13.502;2022-09-09T07:24:11;100491.00;;;18.90
6454;BMP180;3260;52.438;13.502;2022-09-09T07:26:40;100476.00;;;18.80
6454;BMP180;3260;52.438;13.502;2022-09-09T07:29:08;100482.00;;;19.40
6454;BMP180;3260;52.438;13.502;2022-09-09T07:31:39;100494.00;;;19.40
6454;BMP180;3260;52.438;13.502;2022-09-09T07:34:09;100492.00;;;19.60
6454;BMP180;3260;52.438;13.502;2022-09-09T07:36:39;100483.00;;;18.90
6454;BMP180;3260;52.438;13.502;2022-09-09T07:39:11;100495.00;;;19.20
6454;BMP180;3260;52.438;13.502;2022-09-09T07:41:43;100496.00;;;20.00
6454;BMP180;3260;52.438;13.502;2022-09-09T07:44:14;100493.00;;;20.20
6454;BMP180;3260;52.438;13.502;2022-09-09T07:46:44;100497.00;;;20.40
6454;BMP180;3260;52.438;13.502;2022-09-09T07:49:15;100497.00;;;20.10
6454;BMP180;3260;52.438;13.502;2022-09-09T07:51:52;100505.00;;;19.80
6454;BMP180;3260;52.438;13.502;2022-09-09T07:54:21;100500.00;;;20.20
6454;BMP180;3260;52.438;13.502;2022-09-09T07:56:51;100495.00;;;19.40
6454;BMP180;3260;52.438;13.502;2022-09-09T07:59:20;100513.00;;;19.80
6454;BMP180;3260;52.438;13.502;2022-09-09T08:01:50;100511.00;;;19.80
6454;BMP180;3260;52.438;13.502;2022-09-09T08:04:23;100507.00;;;20.20
6454;BMP180;3260;52.438;13.502;2022-09-09T08:06:55;100510.00;;;20.20
6454;BMP180;3260;52.438;13.502;2022-09-09T08:09:26;100513.00;;;20.50
6454;BMP180;3260;52.438;13.502;2022-09-09T08:11:56;100518.00;;;20.50
6454;BMP180;3260;52.438;13.502;2022-09-09T08:14:25;100520.00;;;20.50
6454;BMP180;3260;52.438;13.502;2022-09-09T08:16:53;100521.00;;;20.70
6454;BMP180;3260;52.438;13.502;2022-09-09T08:19:22;100523.00;;;20.90
6454;BMP180;3260;52.438;13.502;2022-09-09T08:21:51;100526.00;;;21.10
6454;BMP180;3260;52.438;13.502;2022-09-09T08:24:19;100526.00;;;21.20
6454;BMP180;3260;52.438;13.502;2022-09-09T08:26:48;100516.00;;;21.50
6454;BMP180;3260;52.438;13.502;2022-09-09T08:29:17;100517.00;;;22.30
6454;BMP180;3260;52.438;13.502;2022-09-09T08:31:48;100520.00;;;21.70
6454;BMP180;3260;52.438;13.502;2022-09-09T08:34:17;100514.00;;;21.90
6454;BMP180;3260;52.438;13.502;2022-09-09T08:36:49;100519.00;;;21.40
6454;BMP180;3260;52.438;13.502;2022-09-09T08:39:20;100519.00;;;21.60
6454;BMP180;3260;52.438;13.502;2022-09-09T08:42:14;100523.00;;;21.40
6454;BMP180;3260;52.438;13.502;2022-09-09T08:45:12;100527.00;;;21.80
6454;BMP180;3260;52.438;13.502;2022-09-09T08:47:57;100524.00;;;22.30
6454;BMP180;3260;52.438;13.502;2022-09-09T08:50:32;100524.00;;;22.30
6454;BMP180;3260;52.438;13.502;2022-09-09T08:53:11;100521.00;;;22.80
6454;BMP180;3260;52.438;13.502;2022-09-09T08:55:45;100527.00;;;23.00
6454;BMP180;3260;52.438;13.502;2022-09-09T08:58:17;100516.00;;;22.50
6454;BMP180;3260;52.438;13.502;2022-09-09T09:01:09;100526.00;;;23.00
6454;BMP180;3260;52.438;13.502;2022-09-09T09:03:52;100527.00;;;23.20
6454;BMP180;3260;52.438;13.502;2022-09-09T09:06:41;100527.00;;;23.00
6454;BMP180;3260;52.438;13.502;2022-09-09T09:09:23;100526.00;;;22.50
6454;BMP180;3260;52.438;13.502;2022-09-09T09:11:58;100529.00;;;22.50
6454;BMP180;3260;52.438;13.502;2022-09-09T09:14:30;100534.00;;;22.50
6454;BMP180;3260;52.438;13.502;2022-09-09T09:17:04;100533.00;;;22.90
6454;BMP180;3260;52.438;13.502;2022-09-09T09:19:34;100535.00;;;23.30
6454;BMP180;3260;52.438;13.502;2022-09-09T09:22:14;100533.00;;;23.50
6454;BMP180;3260;52.438;13.502;2022-09-09T09:24:53;100536.00;;;23.00
6454;BMP180;3260;52.438;13.502;2022-09-09T09:27:31;100537.00;;;23.20
6454;BMP180;3260;52.438;13.502;2022-09-09T09:30:12;100541.00;;;22.20
6454;BMP180;3260;52.438;13.502;2022-09-09T09:33:02;100529.00;;;21.90
6454;BMP180;3260;52.438;13.502;2022-09-09T09:35:31;100528.00;;;22.90
6454;BMP180;3260;52.438;13.502;2022-09-09T09:38:16;100524.00;;;22.80
6454;BMP180;3260;52.438;13.502;2022-09-09T09:41:06;100531.00;;;22.10
6454;BMP180;3260;52.438;13.502;2022-09-09T09:43:36;100535.00;;;22.00
6454;BMP180;3260;52.438;13.502;2022-09-09T09:46:19;100541.00;;;22.60
6454;BMP180;3260;52.438;13.502;2022-09-09T09:48:57;100539.00;;;22.70
6454;BMP180;3260;52.438;13.502;2022-09-09T09:51:26;100530.00;;;23.40
6454;BMP180;3260;52.438;13.502;2022-09-09T09:54:13;100527.00;;;22.50
6454;BMP180;3260;52.438;13.502;2022-09-09T09:56:45;100528.00;;;23.30
6454;BMP180;3260;52.438;13.502;2022-09-09T09:59:31;100531.00;;;23.30
6454;BMP180;3260;52.438;13.502;2022-09-09T10:02:18;100529.00;;;23.40
6454;BMP180;3260;52.438;13.502;2022-09-09T10:04:47;100521.00;;;23.60
6454;BMP180;3260;52.438;13.502;2022-09-09T10:07:20;100528.00;;;23.80
6454;BMP180;3260;52.438;13.502;2022-09-09T10:09:55;100532.00;;;24.40
6454;BMP180;3260;52.438;13.502;2022-09-09T10:12:38;100541.00;;;25.20
6454;BMP180;3260;52.438;13.502;2022-09-09T10:15:28;100516.00;;;25.60
6454;BMP180;3260;52.438;13.502;2022-09-09T10:18:15;100538.00;;;25.40
6454;BMP180;3260;52.438;13.502;2022-09-09T10:20:54;100537.00;;;25.50
6454;BMP180;3260;52.438;13.502;2022-09-09T10:23:44;100537.00;;;25.90
6454;BMP180;3260;52.438;13.502;2022-09-09T10:26:35;100547.00;;;25.20
6454;BMP180;3260;52.438;13.502;2022-09-09T10:29:33;100547.00;;;25.10
6454;BMP180;3260;52.438;13.502;2022-09-09T10:32:33;100546.00;;;26.20
6454;BMP180;3260;52.438;13.502;2022-09-09T10:35:25;100545.00;;;26.20
6454;BMP180;3260;52.438;13.502;2022-09-09T10:38:15;100541.00;;;25.60
6454;BMP180;3260;52.438;13.502;2022-09-09T10:41:00;100546.00;;;25.90
6454;BMP180;3260;52.438;13.502;2022-09-09T10:43:58;100539.00;;;26.00
6454;BMP180;3260;52.438;13.502;2022-09-09T10:46:41;100545.00;;;25.00
6454;BMP180;3260;52.438;13.502;2022-09-09T10:49:42;100548.00;;;25.00
6454;BMP180;3260;52.438;13.502;2022-09-09T10:52:26;100552.00;;;25.30
6454;BMP180;3260;52.438;13.502;2022-09-09T10:55:02;100543.00;;;25.50
6454;BMP180;3260;52.438;13.502;2022-09-09T10:57:40;100541.00;;;25.90
6454;BMP180;3260;52.438;13.502;2022-09-09T11:00:17;100528.00;;;26.10
6454;BMP180;3260;52.438;13.502;2022-09-09T11:02:52;100539.00;;;26.80
6454;BMP180;3260;52.438;13.502;2022-09-09T11:05:30;100539.00;;;28.20
6454;BMP180;3260;52.438;13.502;2022-09-09T11:08:05;100545.00;;;28.10
6454;BMP180;3260;52.438;13.502;2022-09-09T11:10:42;100543.00;;;27.90
6454;BMP180;3260;52.438;13.502;2022-09-09T11:13:20;100539.00;;;28.60
6454;BMP180;3260;52.438;13.502;2022-09-09T11:16:00;100545.00;;;29.30
6454;BMP180;3260;52.438;13.502;2022-09-09T11:18:38;100551.00;;;29.70
6454;BMP180;3260;52.438;13.502;2022-09-09T11:21:16;100541.00;;;29.20
6454;BMP180;3260;52.438;13.502;2022-09-09T11:23:52;100538.00;;;30.30
6454;BMP180;3260;52.438;13.502;2022-09-09T11:26:30;100550.00;;;30.90
6454;BMP180;3260;52.438;13.502;2022-09-09T11:32:39;100537.00;;;30.80
6454;BMP180;3260;52.438;13.502;2022-09-09T11:35:31;100547.00;;;30.70
6454;BMP180;3260;52.438;13.502;2022-09-09T11:38:19;100551.00;;;29.80
6454;BMP180;3260;52.438;13.502;2022-09-09T11:40:57;100546.00;;;31.30
6454;BMP180;3260;52.438;13.502;2022-09-09T11:43:31;100548.00;;;32.70
6454;BMP180;3260;52.438;13.502;2022-09-09T11:46:03;100541.00;;;32.80
6454;BMP180;3260;52.438;13.502;2022-09-09T11:48:36;100542.00;;;32.70
6454;BMP180;3260;52.438;13.502;2022-09-09T11:51:10;100535.00;;;30.80
6454;BMP180;3260;52.438;13.502;2022-09-09T11:53:57;100536.00;;;30.20
6454;BMP180;3260;52.438;13.502;2022-09-09T11:56:30;100537.00;;;30.20
6454;BMP180;3260;52.438;13.502;2022-09-09T11:59:02;100527.00;;;31.30
6454;BMP180;3260;52.438;13.502;2022-09-09T12:01:39;100530.00;;;34.60
6454;BMP180;3260;52.438;13.502;2022-09-09T12:04:33;100528.00;;;36.00
6454;BMP180;3260;52.438;13.502;2022-09-09T12:07:27;100523.00;;;36.70
6454;BMP180;3260;52.438;13.502;2022-09-09T12:10:04;100516.00;;;36.90
6454;BMP180;3260;52.438;13.502;2022-09-09T12:12:35;100525.00;;;33.70
6454;BMP180;3260;52.438;13.502;2022-09-09T12:15:26;100534.00;;;32.40
6454;BMP180;3260;52.438;13.502;2022-09-09T12:17:57;100509.00;;;33.50
6454;BMP180;3260;52.438;13.502;2022-09-09T12:20:36;100507.00;;;34.30
6454;BMP180;3260;52.438;13.502;2022-09-09T12:26:26;100509.00;;;32.40
6454;BMP180;3260;52.438;13.502;2022-09-09T12:29:09;100495.00;;;32.60
6454;BMP180;3260;52.438;13.502;2022-09-09T12:31:44;100499.00;;;34.00
6454;BMP180;3260;52.438;13.502;2022-09-09T12:34:20;100507.00;;;33.00
6454;BMP180;3260;52.438;13.502;2022-09-09T12:37:00;100505.00;;;32.40
6454;BMP180;3260;52.438;13.502;2022-09-09T12:39:38;100506.00;;;32.70
6454;BMP180;3260;52.438;13.502;2022-09-09T12:42:20;100501.00;;;32.10
6454;BMP180;3260;52.438;13.502;2022-09-09T12:44:54;100500.00;;;32.50
6454;BMP180;3260;52.438;13.502;2022-09-09T12:47:32;100491.00;;;32.10
6454;BMP180;3260;52.438;13.502;2022-09-09T12:50:15;100506.00;;;33.10
6454;BMP180;3260;52.438;13.502;2022-09-09T12:52:45;100491.00;;;34.30
6454;BMP180;3260;52.438;13.502;2022-09-09T12:55:20;100489.00;;;34.90
6454;BMP180;3260;52.438;13.502;2022-09-09T12:57:52;100491.00;;;32.60
6454;BMP180;3260;52.438;13.502;2022-09-09T13:00:23;100494.00;;;32.50
6454;BMP180;3260;52.438;13.502;2022-09-09T13:02:56;100504.00;;;32.00
6454;BMP180;3260;52.438;13.502;2022-09-09T13:05:26;100512.00;;;30.10
6454;BMP180;3260;52.438;13.502;2022-09-09T13:08:01;100511.00;;;29.80
6454;BMP180;3260;52.438;13.502;2022-09-09T13:10:35;100505.00;;;30.10
6454;BMP180;3260;52.438;13.502;2022-09-09T13:13:23;100508.00;;;29.00
6454;BMP180;3260;52.438;13.502;2022-09-09T13:15:55;100491.00;;;29.80
6454;BMP180;3260;52.438;13.502;2022-09-09T13:18:28;100482.00;;;29.80
6454;BMP180;3260;52.438;13.502;2022-09-09T13:20:57;100502.00;;;29.70
6454;BMP180;3260;52.438;13.502;2022-09-09T13:23:29;100466.00;;;27.90
6454;BMP180;3260;52.438;13.502;2022-09-09T13:26:01;100487.00;;;28.20
6454;BMP180;3260;52.438;13.502;2022-09-09T13:28:31;100487.00;;;26.70
6454;BMP180;3260;52.438;13.502;2022-09-09T13:31:02;100474.00;;;27.60
6454;BMP180;3260;52.438;13.502;2022-09-09T13:33:35;100477.00;;;27.20
6454;BMP180;3260;52.438;13.502;2022-09-09T13:36:08;100479.00;;;26.80
6454;BMP180;3260;52.438;13.502;2022-09-09T13:38:52;100483.00;;;27.20
6454;BMP180;3260;52.438;13.502;2022-09-09T13:41:25;100483.00;;;27.40
6454;BMP180;3260;52.438;13.502;2022-09-09T13:43:53;100483.00;;;26.90
6454;BMP180;3260;52.438;13.502;2022-09-09T13:46:31;100476.00;;;26.50
6454;BMP180;3260;52.438;13.502;2022-09-09T13:49:18;100406.00;;;26.20
6454;BMP180;3260;52.438;13.502;2022-09-09T13:51:49;100472.00;;;26.50
6454;BMP180;3260;52.438;13.502;2022-09-09T13:54:20;100476.00;;;25.90
6454;BMP180;3260;52.438;13.502;2022-09-09T13:56:50;100479.00;;;25.30
6454;BMP180;3260;52.438;13.502;2022-09-09T13:59:20;100486.00;;;25.50
6454;BMP180;3260;52.438;13.502;2022-09-09T14:01:48;100484.00;;;25.10
6454;BMP180;3260;52.438;13.502;2022-09-09T14:04:19;100479.00;;;25.00
6454;BMP180;3260;52.438;13.502;2022-09-09T14:06:49;100491.00;;;25.00
6454;BMP180;3260;52.438;13.502;2022-09-09T14:09:18;100478.00;;;25.40
6454;BMP180;3260;52.438;13.502;2022-09-09T14:11:46;100489.00;;;25.50
6454;BMP180;3260;52.438;13.502;2022-09-09T14:14:15;100478.00;;;25.20
6454;BMP180;3260;52.438;13.502;2022-09-09T14:16:43;100489.00;;;25.00
6454;BMP180;3260;52.438;13.502;2022-09-09T14:19:12;100482.00;;;24.50
6454;BMP180;3260;52.438;13.502;2022-09-09T14:21:40;100481.00;;;24.60
6454;BMP180;3260;52.438;13.502;2022-09-09T14:24:08;100479.00;;;24.30
6454;BMP180;3260;52.438;13.502;2022-09-09T14:26:36;100475.00;;;24.80
6454;BMP180;3260;52.438;13.502;2022-09-09T14:29:04;100473.00;;;25.30
6454;BMP180;3260;52.438;13.502;2022-09-09T14:31:33;100476.00;;;26.10
6454;BMP180;3260;52.438;13.502;2022-09-09T14:34:01;100472.00;;;26.30
6454;BMP180;3260;52.438;13.502;2022-09-09T14:36:29;100467.00;;;26.10
6454;BMP180;3260;52.438;13.502;2022-09-09T14:38:57;100468.00;;;26.20
6454;BMP180;3260;52.438;13.502;2022-09-09T14:41:25;100465.00;;;25.60
6454;BMP180;3260;52.438;13.502;2022-09-09T14:43:53;100461.00;;;25.30
6454;BMP180;3260;52.438;13.502;2022-09-09T14:46:21;100460.00;;;25.00
6454;BMP180;3260;52.438;13.502;2022-09-09T14:48:51;100465.00;;;24.80
6454;BMP180;3260;52.438;13.502;2022-09-09T14:51:25;100466.00;;;25.10
6454;BMP180;3260;52.438;13.502;2022-09-09T14:53:55;100469.00;;;25.30
6454;BMP180;3260;52.438;13.502;2022-09-09T14:56:27;100470.00;;;25.30
6454;BMP180;3260;52.438;13.502;2022-09-09T14:58:58;100457.00;;;25.50
6454;BMP180;3260;52.438;13.502;2022-09-09T15:01:28;100463.00;;;25.30
6454;BMP180;3260;52.438;13.502;2022-09-09T15:04:00;100466.00;;;25.80
6454;BMP180;3260;52.438;13.502;2022-09-09T15:06:31;100478.00;;;24.30
6454;BMP180;3260;52.438;13.502;2022-09-09T15:09:00;100457.00;;;24.20
6454;BMP180;3260;52.438;13.502;2022-09-09T15:11:31;100485.00;;;24.10
6454;BMP180;3260;52.438;13.502;2022-09-09T15:14:05;100476.00;;;24.50
6454;BMP180;3260;52.438;13.502;2022-09-09T15:16:35;100469.00;;;24.50
6454;BMP180;3260;52.438;13.502;2022-09-09T15:19:04;100446.00;;;25.70
6454;BMP180;3260;52.438;13.502;2022-09-09T15:21:36;100477.00;;;30.10
6454;BMP180;3260;52.438;13.502;2022-09-09T15:24:05;100472.00;;;33.40
6454;BMP180;3260;52.438;13.502;2022-09-09T15:26:36;100477.00;;;36.80
6454;BMP180;3260;52.438;13.502;2022-09-09T15:29:05;100475.00;;;36.40
6454;BMP180;3260;52.438;13.502;2022-09-09T15:31:34;100479.00;;;38.50
6454;BMP180;3260;52.438;13.502;2022-09-09T15:34:06;100476.00;;;38.00
6454;BMP180;3260;52.438;13.502;2022-09-09T15:36:37;100469.00;;;36.10
6454;BMP180;3260;52.438;13.502;2022-09-09T15:39:08;100465.00;;;35.20
6454;BMP180;3260;52.438;13.502;2022-09-09T15:41:39;100459.00;;;34.60
6454;BMP180;3260;52.438;13.502;2022-09-09T15:44:10;100454.00;;;35.70
6454;BMP180;3260;52.438;13.502;2022-09-09T15:46:40;100442.00;;;39.00
6454;BMP180;3260;52.438;13.502;2022-09-09T15:49:12;100437.00;;;42.10
6454;BMP180;3260;52.438;13.502;2022-09-09T15:51:43;100436.00;;;42.60
6454;BMP180;3260;52.438;13.502;2022-09-09T15:54:15;100438.00;;;40.50
6454;BMP180;3260;52.438;13.502;2022-09-09T15:56:46;100447.00;;;42.80
6454;BMP180;3260;52.438;13.502;2022-09-09T15:59:15;100455.00;;;43.20
6454;BMP180;3260;52.438;13.502;2022-09-09T16:01:44;100462.00;;;41.30
6454;BMP180;3260;52.438;13.502;2022-09-09T16:04:13;100463.00;;;40.70
6454;BMP180;3260;52.438;13.502;2022-09-09T16:06:42;100472.00;;;37.60
6454;BMP180;3260;52.438;13.502;2022-09-09T16:09:11;100466.00;;;38.70
6454;BMP180;3260;52.438;13.502;2022-09-09T16:11:39;100470.00;;;35.80
6454;BMP180;3260;52.438;13.502;2022-09-09T16:14:07;100493.00;;;32.40
6454;BMP180;3260;52.438;13.502;2022-09-09T16:16:36;100496.00;;;34.30
6454;BMP180;3260;52.438;13.502;2022-09-09T16:19:06;100492.00;;;33.70
6454;BMP180;3260;52.438;13.502;2022-09-09T16:21:40;100505.00;;;32.00
6454;BMP180;3260;52.438;13.502;2022-09-09T16:24:12;100509.00;;;29.50
6454;BMP180;3260;52.438;13.502;2022-09-09T16:26:43;100494.00;;;28.20
6454;BMP180;3260;52.438;13.502;2022-09-09T16:29:12;100506.00;;;27.80
6454;BMP180;3260;52.438;13.502;2022-09-09T16:31:41;100500.00;;;27.90
6454;BMP180;3260;52.438;13.502;2022-09-09T16:34:10;100508.00;;;26.40
6454;BMP180;3260;52.438;13.502;2022-09-09T16:36:41;100507.00;;;26.40
6454;BMP180;3260;52.438;13.502;2022-09-09T16:39:13;100503.00;;;26.50
6454;BMP180;3260;52.438;13.502;2022-09-09T16:41:43;100499.00;;;25.10
6454;BMP180;3260;52.438;13.502;2022-09-09T16:44:14;100504.00;;;25.50
6454;BMP180;3260;52.438;13.502;2022-09-09T16:46:44;100498.00;;;25.20
6454;BMP180;3260;52.438;13.502;2022-09-09T16:49:16;100499.00;;;24.40
6454;BMP180;3260;52.438;13.502;2022-09-09T16:51:47;100498.00;;;24.70
6454;BMP180;3260;52.438;13.502;2022-09-09T16:54:16;100491.00;;;24.00
6454;BMP180;3260;52.438;13.502;2022-09-09T16:56:47;100492.00;;;23.00
6454;BMP180;3260;52.438;13.502;2022-09-09T16:59:17;100497.00;;;23.00
6454;BMP180;3260;52.438;13.502;2022-09-09T17:01:48;100506.00;;;23.00
6454;BMP180;3260;52.438;13.502;2022-09-09T17:04:18;100495.00;;;23.20
6454;BMP180;3260;52.438;13.502;2022-09-09T17:06:52;100496.00;;;23.00
6454;BMP180;3260;52.438;13.502;2022-09-09T17:09:22;100492.00;;;23.10
6454;BMP180;3260;52.438;13.502;2022-09-09T17:11:51;100488.00;;;23.00
6454;BMP180;3260;52.438;13.502;2022-09-09T17:14:22;100491.00;;;23.10
6454;BMP180;3260;52.438;13.502;2022-09-09T17:16:51;100493.00;;;22.80
6454;BMP180;3260;52.438;13.502;2022-09-09T17:19:19;100485.00;;;22.50
6454;BMP180;3260;52.438;13.502;2022-09-09T17:21:48;100482.00;;;22.30
6454;BMP180;3260;52.438;13.502;2022-09-09T17:24:36;100477.00;;;22.20
6454;BMP180;3260;52.438;13.502;2022-09-09T17:27:05;100478.00;;;22.20
6454;BMP180;3260;52.438;13.502;2022-09-09T17:29:33;100474.00;;;22.20
6454;BMP180;3260;52.438;13.502;2022-09-09T17:32:03;100474.00;;;22.00
6454;BMP180;3260;52.438;13.502;2022-09-09T17:34:32;100458.00;;;21.40
6454;BMP180;3260;52.438;13.502;2022-09-09T17:37:02;100478.00;;;21.30
6454;BMP180;3260;52.438;13.502;2022-09-09T17:39:31;100479.00;;;21.50
6454;BMP180;3260;52.438;13.502;2022-09-09T17:41:59;100475.00;;;21.40
6454;BMP180;3260;52.438;13.502;2022-09-09T17:44:27;100481.00;;;21.00
6454;BMP180;3260;52.438;13.502;2022-09-09T17:46:55;100477.00;;;21.00
6454;BMP180;3260;52.438;13.502;2022-09-09T17:49:23;100481.00;;;20.90
6454;BMP180;3260;52.438;13.502;2022-09-09T17:51:51;100477.00;;;20.70
6454;BMP180;3260;52.438;13.502;2022-09-09T17:54:21;100483.00;;;19.90
6454;BMP180;3260;52.438;13.502;2022-09-09T17:56:49;100489.00;;;19.80
6454;BMP180;3260;52.438;13.502;2022-09-09T17:59:19;100488.00;;;19.70
6454;BMP180;3260;52.438;13.502;2022-09-09T18:01:48;100483.00;;;19.50
6454;BMP180;3260;52.438;13.502;2022-09-09T18:04:18;100493.00;;;19.80
6454;BMP180;3260;52.438;13.502;2022-09-09T18:06:49;100498.00;;;19.70
6454;BMP180;3260;52.438;13.502;2022-09-09T18:09:22;100489.00;;;19.80
6454;BMP180;3260;52.438;13.502;2022-09-09T18:11:55;100499.00;;;19.30
6454;BMP180;3260;52.438;13.502;2022-09-09T18:14:27;100501.00;;;19.00
6454;BMP180;3260;52.438;13.502;2022-09-09T18:16:56;100503.00;;;19.20
6454;BMP180;3260;52.438;13.502;2022-09-09T18:19:28;100505.00;;;18.30
6454;BMP180;3260;52.438;13.502;2022-09-09T18:21:57;100515.00;;;18.10
6454;BMP180;3260;52.438;13.502;2022-09-09T18:24:30;100520.00;;;18.30
6454;BMP180;3260;52.438;13.502;2022-09-09T18:26:59;100520.00;;;18.00
6454;BMP180;3260;52.438;13.502;2022-09-09T18:29:27;100521.00;;;17.80
6454;BMP180;3260;52.438;13.502;2022-09-09T18:31:55;100522.00;;;18.10
6454;BMP180;3260;52.438;13.502;2022-09-09T18:34:24;100527.00;;;17.90
6454;BMP180;3260;52.438;13.502;2022-09-09T18:36:54;100537.00;;;17.60
6454;BMP180;3260;52.438;13.502;2022-09-09T18:39:27;100539.00;;;17.60
6454;BMP180;3260;52.438;13.502;2022-09-09T18:41:58;100551.00;;;17.50
6454;BMP180;3260;52.438;13.502;2022-09-09T18:44:30;100537.00;;;17.60
6454;BMP180;3260;52.438;13.502;2022-09-09T18:46:59;100539.00;;;17.70
6454;BMP180;3260;52.438;13.502;2022-09-09T18:49:28;100537.00;;;17.60